This is the latest recevied weather packets stored in our database for station/object EA1IDU-12. If no packets are shown the sender has not sent any weather packets the latest 10 day(s).
| Time | Temp. | Humidity | Pressure | Rain* | Wind** | Luminosity | Snow |
|---|---|---|---|---|---|---|---|
| 1787434028 | 20.56° C | 60% | 1024.8 hPa | - | - | - | - |
| 1787433128 | 20.56° C | 57% | 1024.7 hPa | - | - | - | - |
| 1787432227 | 20.56° C | 55% | 1024.7 hPa | - | - | - | - |
| 1787431327 | 21.11° C | 53% | 1024.6 hPa | - | - | - | - |
| 1787430427 | 21.11° C | 52% | 1024.4 hPa | - | - | - | - |
| 1787429527 | 21.11° C | 51% | 1024.3 hPa | - | - | - | - |
| 1787428627 | 21.67° C | 49% | 1024.2 hPa | - | - | - | - |
| 1787427727 | 21.67° C | 49% | 1024.1 hPa | - | - | - | - |
| 1787426826 | 22.22° C | 48% | 1024 hPa | - | - | - | - |
| 1787425926 | 22.22° C | 46% | 1023.9 hPa | - | - | - | - |
| 1787425026 | 22.78° C | 45% | 1024 hPa | - | - | - | - |
| 1787424126 | 23.33° C | 44% | 1023.9 hPa | - | - | - | - |
| 1787423226 | 25° C | 40% | 1023.9 hPa | - | - | - | - |
| 1787422326 | 26.11° C | 38% | 1023.8 hPa | - | - | - | - |
| 1787421425 | 26.67° C | 37% | 1023.9 hPa | - | - | - | - |
| 1787420525 | 27.22° C | 36% | 1023.9 hPa | - | - | - | - |
| 1787419625 | 27.78° C | 35% | 1024 hPa | - | - | - | - |
| 1787418725 | 28.33° C | 34% | 1023.9 hPa | - | - | - | - |
| 1787417825 | 28.33° C | 34% | 1023.8 hPa | - | - | - | - |
| 1787416925 | 28.33° C | 33% | 1023.9 hPa | - | - | - | - |
| 1787416024 | 28.89° C | 34% | 1023.8 hPa | - | - | - | - |
| 1787415124 | 29.44° C | 33% | 1023.9 hPa | - | - | - | - |
| 1787414224 | 30° C | 33% | 1023.8 hPa | - | - | - | - |
| 1787413324 | 30° C | 33% | 1024 hPa | - | - | - | - |
| 1787412424 | 28.33° C | 35% | 1024.1 hPa | - | - | - | - |
* Rain since midnight (hover to see other rain measurements)
** Current wind speed in m/s (hover to see current wind gust speed)